Latest Coastal Weather Observations for Yanakie

IDV60701

Issued at 4:02 pm EDT Sunday 17 November 2019 (issued every 10 minutes, with the page automatically refreshed every 10 minutes)

About coastal observations | Map of coastal stations | Coastal observations for VIC | Marine services | Other Formats
Station Details ID: 085301 Name: YANAKIE Lat: -38.81 Lon: 146.19 Height: 13.3 m
Data from the previous 72 hours. | See also: Recent months at Yanakie
Date/Time
EDT
Wind Sea
Height
m
Swell Vis
km
Cloud Weather Temp
°C
Press
hPa
Rain since
9am
mm
Dir  Spd
kts
Gust
kts
Height
m
Period
s
Dir
17/04:00pm SW 13 17 - - - - - - - 14.1 1019.9 0.0
17/03:30pm SW 14 18 - - - - - - - 13.6 1020.2 0.0
17/03:00pm SW 13 18 - - - - - - - 13.8 1020.5 0.0
17/02:30pm SW 14 18 - - - - - - - 13.5 1020.6 0.0
17/02:00pm WSW 13 18 - - - - - - - 14.7 1020.6 0.0
17/01:30pm SW 13 18 - - - - - - - 14.8 1020.9 0.0
17/01:00pm WSW 13 17 - - - - - - - 14.2 1021.0 0.0
17/12:30pm SW 15 21 - - - - - - - 13.9 1021.0 0.0
17/12:00pm SW 16 21 - - - - - - - 13.8 1021.2 0.0
17/11:30am SW 16 21 - - - - - - - 14.7 1021.1 0.0
17/11:00am SW 14 20 - - - - - - - 14.3 1020.7 0.0
17/10:30am SW 14 18 - - - - - - - 14.1 1020.6 0.0
17/10:00am SW 14 17 - - - - - - - 13.4 1020.6 0.0
17/09:30am SW 14 19 - - - - - - - 12.7 1020.3 0.0
17/09:00am SW 11 16 - - - - - - - 11.5 1020.2 0.4
17/08:30am SW 13 16 - - - - - - - 12.1 1020.0 0.4
17/08:00am SW 15 19 - - - - - - - 12.3 1019.7 0.4
17/07:30am SW 14 18 - - - - - - - 11.3 1019.3 0.4
17/07:00am SW 12 17 - - - - - - - 11.9 1018.7 0.4
17/06:30am WSW 13 18 - - - - - - - 11.2 1018.6 0.4
17/06:00am WSW 11 16 - - - - - - - 10.3 1018.2 0.4
17/05:30am WSW 12 17 - - - - - - - 11.1 1017.9 0.4
17/05:00am WSW 12 17 - - - - - - - 11.0 1017.7 0.4
17/04:30am WSW 11 15 - - - - - - - 10.4 1017.5 0.4
17/04:00am WSW 15 22 - - - - - - - 10.4 1017.7 0.4
17/03:30am WNW 9 12 - - - - - - - 10.4 1017.4 0.0
17/03:00am W 11 13 - - - - - - - 10.1 1017.4 0.0
17/02:30am W 13 18 - - - - - - - 11.0 1017.5 0.0
17/02:00am W 11 14 - - - - - - - 11.2 1017.6 0.0
17/01:30am W 10 17 - - - - - - - 11.1 1018.0 0.0
17/01:00am W 10 12 - - - - - - - 10.5 1018.1 0.0
17/12:30am W 11 16 - - - - - - - 11.1 1018.1 0.0
17/12:00am W 11 14 - - - - - - - 11.4 1018.1 0.0
 
Date/Time
EDT
Wind Sea
Height
m
Swell Vis
km
Cloud Weather Temp
°C
Press
hPa
Rain since
9am
mm
Dir  Spd
kts
Gust
kts
Height
m
Period
s
Dir
16/11:30pm W 10 12 - - - - - - - 11.5 1018.2 0.0
16/11:00pm W 11 14 - - - - - - - 11.3 1018.4 0.0
16/10:30pm W 11 15 - - - - - - - 11.6 1018.2 0.0
16/10:00pm W 13 18 - - - - - - - 11.4 1018.3 0.0
16/09:30pm W 15 23 - - - - - - - 11.8 1018.1 0.0
16/09:00pm WSW 13 19 - - - - - - - 11.8 1018.0 0.0
16/08:30pm W 15 21 - - - - - - - 11.9 1017.9 0.0
16/08:00pm W 13 20 - - - - - - - 12.0 1017.7 0.0
16/07:30pm W 14 19 - - - - - - - 12.1 1017.6 0.0
16/07:00pm W 15 21 - - - - - - - 12.3 1017.4 0.0
16/06:30pm W 17 23 - - - - - - - 13.3 1017.3 0.0
16/06:00pm W 18 26 - - - - - - - 13.7 1017.3 0.0
16/05:30pm W 19 26 - - - - - - - 13.7 1017.5 0.0
16/05:00pm W 18 23 - - - - - - - 13.8 1017.4 0.0
16/04:30pm W 19 24 - - - - - - - 14.8 1017.2 0.0
16/04:00pm W 19 25 - - - - - - - 14.8 1017.1 0.0
16/03:30pm W 22 28 - - - - - - - 14.8 1017.0 0.0
16/03:00pm W 19 27 - - - - - - - 14.1 1017.0 0.0
16/02:30pm W 20 25 - - - - - - - 13.4 1017.1 0.0
16/02:00pm W 19 25 - - - - - - - 14.3 1017.0 0.0
16/01:30pm W 17 24 - - - - - - - 14.4 1017.0 0.0
16/01:00pm WNW 17 24 - - - - - - - 15.5 1017.0 0.0
16/12:30pm W 21 28 - - - - - - - 15.2 1017.1 0.0
16/12:00pm W 21 27 - - - - - - - 14.3 1017.1 0.0
16/11:30am W 18 24 - - - - - - - 15.3 1017.2 0.0
16/11:00am W 17 23 - - - - - - - 14.9 1017.2 0.0
16/10:30am W 18 26 - - - - - - - 14.6 1017.0 0.0
16/10:00am W 17 22 - - - - - - - 12.9 1016.9 0.0
16/09:30am W 17 21 - - - - - - - 13.2 1016.7 0.0
16/09:00am W 18 24 - - - - - - - 12.4 1016.7 0.6
16/08:30am W 18 24 - - - - - - - 12.5 1016.5 0.6
16/08:00am W 15 23 - - - - - - - 11.5 1016.0 0.6
16/07:30am W 10 14 - - - - - - - 11.4 1015.8 0.6
16/07:00am W 9 11 - - - - - - - 9.8 1015.7 0.6
16/06:30am WSW 11 16 - - - - - - - 10.1 1015.4 0.6
16/06:00am WSW 16 22 - - - - - - Recent precip. 9.8 1015.3 0.6
16/05:30am W 11 15 - - - - - - - 10.1 1014.9 0.4
16/05:00am WSW 14 19 - - - - - - - 9.9 1014.6 0.4
16/04:33am W 15 27 - - - - - - - 10.9 1014.6 0.4
16/04:30am W 14 19 - - - - - - - 10.3 1014.5 0.4
16/04:00am W 11 14 - - - - - - - 9.9 1014.6 0.4
16/03:30am W 10 14 - - - - - - - 9.8 1014.4 0.4
16/03:00am W 11 15 - - - - - - - 9.8 1014.4 0.4
16/02:30am WSW 14 19 - - - - - - - 10.8 1014.5 0.4
16/02:00am W 13 18 - - - - - - - 10.1 1014.5 0.4
16/01:30am W 15 24 - - - - - - - 10.9 1014.6 0.4
16/01:00am W 15 22 - - - - - - - 10.5 1014.8 0.4
16/12:30am W 16 23 - - - - - - - 10.4 1014.5 0.4
16/12:00am W 18 30 - - - - - - - 10.9 1014.4 0.4
 
Date/Time
EDT
Wind Sea
Height
m
Swell Vis
km
Cloud Weather Temp
°C
Press
hPa
Rain since
9am
mm
Dir  Spd
kts
Gust
kts
Height
m
Period
s
Dir
15/11:59pm W 18 29 - - - - - - - 11.0 1014.4 0.4
15/11:30pm W 16 21 - - - - - - - 10.7 1014.3 0.4
15/11:00pm W 17 23 - - - - - - - 10.7 1014.2 0.4
15/10:30pm W 15 20 - - - - - - - 11.1 1014.0 0.4
15/10:00pm W 15 20 - - - - - - - 10.9 1013.7 0.4
15/09:30pm W 18 25 - - - - - - - 11.1 1013.4 0.4
15/09:00pm W 15 19 - - - - - - - 10.7 1013.3 0.4
15/08:30pm W 17 24 - - - - - - - 11.1 1012.9 0.4
15/08:00pm W 18 24 - - - - - - - 11.6 1012.5 0.4
15/07:30pm W 23 31 - - - - - - - 12.4 1011.9 0.4
15/07:00pm WSW 19 26 - - - - - - - 12.6 1011.5 0.4
15/06:30pm WSW 22 32 - - - - - - - 13.3 1011.1 0.4
15/06:23pm WSW 22 32 - - - - - - - 13.4 1011.0 0.4
15/06:00pm W 21 29 - - - - - - - 13.2 1010.8 0.4
15/05:40pm WSW 20 31 - - - - - - - 13.4 1010.4 0.4
15/05:30pm WSW 22 31 - - - - - - - 13.1 1010.2 0.4
15/05:00pm WSW 21 29 - - - - - - - 13.5 1009.8 0.4
15/04:38pm WSW 23 33 - - - - - - - 14.4 1009.5 0.4
15/04:30pm WSW 25 33 - - - - - - - 13.7 1009.5 0.4
15/04:00pm W 22 34 - - - - - - - 13.1 1009.2 0.4
15/03:55pm W 23 34 - - - - - - - 13.0 1009.2 0.4
15/03:30pm W 23 32 - - - - - - - 14.5 1008.9 0.4
15/03:29pm W 22 32 - - - - - - - 14.7 1008.9 0.4
15/03:00pm W 23 32 - - - - - - - 13.9 1008.8 0.4
15/02:30pm W 21 29 - - - - - - - 14.4 1008.6 0.4
15/02:00pm W 20 27 - - - - - - - 14.7 1008.3 0.4
15/01:30pm W 19 26 - - - - - - - 13.5 1008.4 0.4
15/01:00pm WNW 22 29 - - - - - - - 14.4 1008.3 0.4
15/12:30pm W 20 28 - - - - - - - 14.7 1008.4 0.4
15/12:00pm W 21 30 - - - - - - Recent precip. 13.0 1008.7 0.4
15/11:30am W 18 25 - - - - - - - 12.6 1008.8 0.2
15/11:00am W 20 28 - - - - - - - 13.1 1008.7 0.0
15/10:30am WNW 17 23 - - - - - - - 14.7 1008.4 0.0
15/10:00am WNW 20 27 - - - - - - - 14.4 1008.3 0.0
15/09:30am WNW 21 28 - - - - - - - 14.2 1008.2 0.0
15/09:00am WNW 17 25 - - - - - - - 13.7 1008.2 0.2
15/08:30am WNW 17 22 - - - - - - - 12.8 1008.2 0.2
15/08:00am WNW 16 23 - - - - - - - 12.2 1008.2 0.2
15/07:30am WNW 16 23 - - - - - - - 11.7 1008.2 0.2
15/07:00am WNW 16 21 - - - - - - - 11.4 1008.5 0.0
15/06:30am WNW 15 22 - - - - - - - 11.3 1007.9 0.0
15/06:00am W 14 22 - - - - - - - 11.3 1007.9 0.0
15/05:30am WNW 15 21 - - - - - - - 11.9 1007.6 0.0
15/05:00am WNW 15 20 - - - - - - - 12.0 1007.2 0.0
15/04:30am WNW 16 21 - - - - - - - 12.6 1007.4 0.0
15/04:00am W 15 21 - - - - - - - 12.6 1007.7 0.0
15/03:30am W 14 18 - - - - - - - 12.5 1007.6 0.0
15/03:00am W 17 23 - - - - - - - 12.5 1008.0 0.0
15/02:30am W 15 22 - - - - - - - 12.8 1008.1 0.0
15/02:00am W 17 22 - - - - - - - 12.9 1008.5 0.0
15/01:30am W 17 23 - - - - - - - 12.8 1008.7 0.0
15/01:00am W 15 21 - - - - - - - 12.7 1009.0 0.0
15/12:30am W 15 20 - - - - - - - 12.9 1009.1 0.0
15/12:00am W 16 20 - - - - - - - 13.0 1009.5 0.0
 
Date/Time
EDT
Wind Sea
Height
m
Swell Vis
km
Cloud Weather Temp
°C
Press
hPa
Rain since
9am
mm
Dir  Spd
kts
Gust
kts
Height
m
Period
s
Dir
14/11:30pm W 19 26 - - - - - - - 13.0 1009.5 0.0
14/11:00pm W 15 18 - - - - - - - 12.8 1009.9 0.0
14/10:30pm W 17 25 - - - - - - - 13.1 1010.3 0.0
14/10:00pm W 17 23 - - - - - - - 13.1 1010.2 0.0
14/09:30pm W 16 22 - - - - - - - 13.3 1010.5 0.0
14/09:00pm W 14 21 - - - - - - - 13.0 1010.3 0.0
14/08:30pm W 13 16 - - - - - - - 12.9 1010.2 0.0
14/08:00pm W 13 18 - - - - - - - 13.2 1010.5 0.0
14/07:30pm W 15 22 - - - - - - - 13.8 1010.5 0.0
14/07:00pm WSW 16 21 - - - - - - - 14.5 1010.4 0.0
14/06:30pm WSW 15 19 - - - - - - - 15.3 1010.3 0.0
14/06:00pm W 15 19 - - - - - - - 16.1 1010.4 0.0
14/05:30pm W 21 27 - - - - - - - 17.8 1010.3 0.0
14/05:00pm W 18 24 - - - - - - - 18.3 1010.4 0.0
14/04:30pm WNW 20 27 - - - - - - - 18.4 1010.5 0.0

Other formats

Comma delimited format used in spreadsheet applications
http://www.bom.gov.au/fwo/IDV60701/IDV60701.94911.axf

JavaScript Object Notation format (JSON) in row-major order
http://www.bom.gov.au/fwo/IDV60701/IDV60701.94911.json

Data quality

Most of these data are generated automatically and are frequently updated. Quality checks on data are not normally performed. It is possible for incorrect values to appear. Refer to information at About Latest Weather Observations and please check the disclaimer before using these data.